sensor_id;sensor_type;location;lat;lon;timestamp;temperature;humidity
2907;DHT22;1463;51.070;16.998;2023-07-20T00:00:20;20.80;99.90
2907;DHT22;1463;51.070;16.998;2023-07-20T00:02:50;20.80;99.90
2907;DHT22;1463;51.070;16.998;2023-07-20T00:05:18;20.90;99.90
2907;DHT22;1463;51.070;16.998;2023-07-20T00:07:48;20.70;99.90
2907;DHT22;1463;51.070;16.998;2023-07-20T00:10:18;20.70;99.90
2907;DHT22;1463;51.070;16.998;2023-07-20T00:12:45;20.60;99.90
2907;DHT22;1463;51.070;16.998;2023-07-20T00:15:13;20.70;99.90
2907;DHT22;1463;51.070;16.998;2023-07-20T00:17:41;20.60;99.90
2907;DHT22;1463;51.070;16.998;2023-07-20T00:20:09;20.50;99.90
2907;DHT22;1463;51.070;16.998;2023-07-20T00:22:37;20.50;99.90
2907;DHT22;1463;51.070;16.998;2023-07-20T00:25:07;20.70;99.90
2907;DHT22;1463;51.070;16.998;2023-07-20T00:27:34;20.60;99.90
2907;DHT22;1463;51.070;16.998;2023-07-20T00:30:02;20.50;99.90
2907;DHT22;1463;51.070;16.998;2023-07-20T00:32:30;20.40;99.90
2907;DHT22;1463;51.070;16.998;2023-07-20T00:34:57;20.50;99.90
2907;DHT22;1463;51.070;16.998;2023-07-20T00:37:25;20.50;99.90
2907;DHT22;1463;51.070;16.998;2023-07-20T00:39:53;20.40;99.90
2907;DHT22;1463;51.070;16.998;2023-07-20T00:42:22;20.40;99.90
2907;DHT22;1463;51.070;16.998;2023-07-20T00:44:50;20.70;99.90
2907;DHT22;1463;51.070;16.998;2023-07-20T00:47:18;20.80;99.90
2907;DHT22;1463;51.070;16.998;2023-07-20T00:49:45;20.80;99.90
2907;DHT22;1463;51.070;16.998;2023-07-20T00:52:13;20.70;99.90
2907;DHT22;1463;51.070;16.998;2023-07-20T00:54:42;20.70;99.90
2907;DHT22;1463;51.070;16.998;2023-07-20T00:57:13;20.80;99.90
2907;DHT22;1463;51.070;16.998;2023-07-20T00:59:43;20.60;99.90
2907;DHT22;1463;51.070;16.998;2023-07-20T01:02:11;20.60;99.90
2907;DHT22;1463;51.070;16.998;2023-07-20T01:04:38;20.50;99.90
2907;DHT22;1463;51.070;16.998;2023-07-20T01:07:10;20.60;99.90
2907;DHT22;1463;51.070;16.998;2023-07-20T01:09:42;20.60;99.90
2907;DHT22;1463;51.070;16.998;2023-07-20T01:12:15;20.50;99.90
2907;DHT22;1463;51.070;16.998;2023-07-20T01:14:46;20.50;99.90
2907;DHT22;1463;51.070;16.998;2023-07-20T01:17:14;20.60;99.90
2907;DHT22;1463;51.070;16.998;2023-07-20T01:19:42;20.60;99.90
2907;DHT22;1463;51.070;16.998;2023-07-20T01:22:16;20.60;99.90
2907;DHT22;1463;51.070;16.998;2023-07-20T01:25:11;20.60;99.90
2907;DHT22;1463;51.070;16.998;2023-07-20T01:28:17;20.60;99.90
2907;DHT22;1463;51.070;16.998;2023-07-20T01:30:56;20.80;99.90
2907;DHT22;1463;51.070;16.998;2023-07-20T01:33:28;20.50;99.90
2907;DHT22;1463;51.070;16.998;2023-07-20T01:35:59;20.60;99.90
2907;DHT22;1463;51.070;16.998;2023-07-20T01:38:27;20.60;99.90
2907;DHT22;1463;51.070;16.998;2023-07-20T01:40:55;20.60;99.90
2907;DHT22;1463;51.070;16.998;2023-07-20T01:43:23;20.60;99.90
2907;DHT22;1463;51.070;16.998;2023-07-20T01:45:50;20.60;99.90
2907;DHT22;1463;51.070;16.998;2023-07-20T01:48:17;20.50;99.90
2907;DHT22;1463;51.070;16.998;2023-07-20T01:50:46;20.40;99.90
2907;DHT22;1463;51.070;16.998;2023-07-20T01:53:14;20.40;99.90
2907;DHT22;1463;51.070;16.998;2023-07-20T01:55:41;20.40;99.90
2907;DHT22;1463;51.070;16.998;2023-07-20T01:58:09;20.30;99.90
2907;DHT22;1463;51.070;16.998;2023-07-20T02:00:37;20.30;99.90
2907;DHT22;1463;51.070;16.998;2023-07-20T02:03:05;20.40;99.90
2907;DHT22;1463;51.070;16.998;2023-07-20T02:05:33;20.30;99.90
2907;DHT22;1463;51.070;16.998;2023-07-20T02:08:02;20.40;99.90
2907;DHT22;1463;51.070;16.998;2023-07-20T02:10:30;20.40;99.90
2907;DHT22;1463;51.070;16.998;2023-07-20T02:12:57;20.30;99.90
2907;DHT22;1463;51.070;16.998;2023-07-20T02:15:25;20.20;99.90
2907;DHT22;1463;51.070;16.998;2023-07-20T02:17:53;20.20;99.90
2907;DHT22;1463;51.070;16.998;2023-07-20T02:20:20;20.10;99.90
2907;DHT22;1463;51.070;16.998;2023-07-20T02:22:48;20.10;99.90
2907;DHT22;1463;51.070;16.998;2023-07-20T02:25:17;20.20;99.90
2907;DHT22;1463;51.070;16.998;2023-07-20T02:27:44;20.10;99.90
2907;DHT22;1463;51.070;16.998;2023-07-20T02:30:12;20.00;99.90
2907;DHT22;1463;51.070;16.998;2023-07-20T02:32:39;20.10;99.90
2907;DHT22;1463;51.070;16.998;2023-07-20T02:35:11;20.00;99.90
2907;DHT22;1463;51.070;16.998;2023-07-20T02:37:39;20.10;99.90
2907;DHT22;1463;51.070;16.998;2023-07-20T02:40:07;20.10;99.90
2907;DHT22;1463;51.070;16.998;2023-07-20T02:42:36;19.90;99.90
2907;DHT22;1463;51.070;16.998;2023-07-20T02:45:05;19.90;99.90
2907;DHT22;1463;51.070;16.998;2023-07-20T02:47:32;19.90;99.90
2907;DHT22;1463;51.070;16.998;2023-07-20T02:50:00;19.90;99.90
2907;DHT22;1463;51.070;16.998;2023-07-20T02:52:27;19.90;99.90
2907;DHT22;1463;51.070;16.998;2023-07-20T02:54:55;19.90;99.90
2907;DHT22;1463;51.070;16.998;2023-07-20T02:57:23;19.80;99.90
2907;DHT22;1463;51.070;16.998;2023-07-20T02:59:52;19.90;99.90
2907;DHT22;1463;51.070;16.998;2023-07-20T03:02:19;19.90;99.90
2907;DHT22;1463;51.070;16.998;2023-07-20T03:04:46;19.80;99.90
2907;DHT22;1463;51.070;16.998;2023-07-20T03:07:14;19.80;99.90
2907;DHT22;1463;51.070;16.998;2023-07-20T03:09:41;19.80;99.90
2907;DHT22;1463;51.070;16.998;2023-07-20T03:12:09;19.80;99.90
2907;DHT22;1463;51.070;16.998;2023-07-20T03:14:37;19.80;99.90
2907;DHT22;1463;51.070;16.998;2023-07-20T03:17:06;19.80;99.90
2907;DHT22;1463;51.070;16.998;2023-07-20T03:19:34;19.60;99.90
2907;DHT22;1463;51.070;16.998;2023-07-20T03:22:01;19.60;99.90
2907;DHT22;1463;51.070;16.998;2023-07-20T03:24:29;19.60;99.90
2907;DHT22;1463;51.070;16.998;2023-07-20T03:26:56;19.60;99.90
2907;DHT22;1463;51.070;16.998;2023-07-20T03:29:24;19.50;99.90
2907;DHT22;1463;51.070;16.998;2023-07-20T03:31:51;19.50;99.90
2907;DHT22;1463;51.070;16.998;2023-07-20T03:34:20;19.40;99.90
2907;DHT22;1463;51.070;16.998;2023-07-20T03:36:48;19.40;99.90
2907;DHT22;1463;51.070;16.998;2023-07-20T03:39:15;19.50;99.90
2907;DHT22;1463;51.070;16.998;2023-07-20T03:41:42;19.50;99.90
2907;DHT22;1463;51.070;16.998;2023-07-20T03:44:10;19.40;99.90
2907;DHT22;1463;51.070;16.998;2023-07-20T03:46:37;19.40;99.90
2907;DHT22;1463;51.070;16.998;2023-07-20T03:49:05;19.30;99.90
2907;DHT22;1463;51.070;16.998;2023-07-20T03:51:36;19.30;99.90
2907;DHT22;1463;51.070;16.998;2023-07-20T03:54:04;19.30;99.90
2907;DHT22;1463;51.070;16.998;2023-07-20T03:56:31;19.30;99.90
2907;DHT22;1463;51.070;16.998;2023-07-20T03:59:01;19.30;99.90
2907;DHT22;1463;51.070;16.998;2023-07-20T04:01:28;19.20;99.90
2907;DHT22;1463;51.070;16.998;2023-07-20T04:03:56;19.20;99.90
2907;DHT22;1463;51.070;16.998;2023-07-20T04:06:23;19.20;99.90
2907;DHT22;1463;51.070;16.998;2023-07-20T04:08:52;19.20;99.90
2907;DHT22;1463;51.070;16.998;2023-07-20T04:11:19;19.20;99.90
2907;DHT22;1463;51.070;16.998;2023-07-20T04:13:47;19.20;99.90
2907;DHT22;1463;51.070;16.998;2023-07-20T04:16:14;19.20;99.90
2907;DHT22;1463;51.070;16.998;2023-07-20T04:18:42;19.20;99.90
2907;DHT22;1463;51.070;16.998;2023-07-20T04:21:09;19.20;99.90
2907;DHT22;1463;51.070;16.998;2023-07-20T04:23:37;19.30;99.90
2907;DHT22;1463;51.070;16.998;2023-07-20T04:26:06;19.20;99.90
2907;DHT22;1463;51.070;16.998;2023-07-20T04:28:34;19.20;99.90
2907;DHT22;1463;51.070;16.998;2023-07-20T04:31:10;19.20;99.90
2907;DHT22;1463;51.070;16.998;2023-07-20T04:33:38;19.40;99.90
2907;DHT22;1463;51.070;16.998;2023-07-20T04:36:06;19.30;99.90
2907;DHT22;1463;51.070;16.998;2023-07-20T04:38:33;19.30;99.90
2907;DHT22;1463;51.070;16.998;2023-07-20T04:41:01;19.40;99.90
2907;DHT22;1463;51.070;16.998;2023-07-20T04:43:30;19.40;99.90
2907;DHT22;1463;51.070;16.998;2023-07-20T04:45:58;19.40;99.90
2907;DHT22;1463;51.070;16.998;2023-07-20T04:48:25;19.30;99.90
2907;DHT22;1463;51.070;16.998;2023-07-20T04:50:53;19.30;99.90
2907;DHT22;1463;51.070;16.998;2023-07-20T04:53:21;19.20;99.90
2907;DHT22;1463;51.070;16.998;2023-07-20T04:55:50;19.20;99.90
2907;DHT22;1463;51.070;16.998;2023-07-20T04:58:18;19.30;99.90
2907;DHT22;1463;51.070;16.998;2023-07-20T05:00:48;19.20;99.90
2907;DHT22;1463;51.070;16.998;2023-07-20T05:03:15;19.30;99.90
2907;DHT22;1463;51.070;16.998;2023-07-20T05:05:43;19.40;99.90
2907;DHT22;1463;51.070;16.998;2023-07-20T05:08:10;19.30;99.90
2907;DHT22;1463;51.070;16.998;2023-07-20T05:10:38;19.30;99.90
2907;DHT22;1463;51.070;16.998;2023-07-20T05:13:05;19.40;99.90
2907;DHT22;1463;51.070;16.998;2023-07-20T05:15:33;19.40;99.90
2907;DHT22;1463;51.070;16.998;2023-07-20T05:18:03;19.40;99.90
2907;DHT22;1463;51.070;16.998;2023-07-20T05:20:30;19.40;99.90
2907;DHT22;1463;51.070;16.998;2023-07-20T05:23:00;19.20;99.90
2907;DHT22;1463;51.070;16.998;2023-07-20T05:25:29;19.20;99.90
2907;DHT22;1463;51.070;16.998;2023-07-20T05:27:58;19.50;99.90
2907;DHT22;1463;51.070;16.998;2023-07-20T05:30:27;19.40;99.90
2907;DHT22;1463;51.070;16.998;2023-07-20T05:32:57;19.40;99.90
2907;DHT22;1463;51.070;16.998;2023-07-20T05:35:26;19.30;99.90
2907;DHT22;1463;51.070;16.998;2023-07-20T05:37:54;19.40;99.90
2907;DHT22;1463;51.070;16.998;2023-07-20T05:40:22;19.40;99.90
2907;DHT22;1463;51.070;16.998;2023-07-20T05:42:49;19.40;99.90
2907;DHT22;1463;51.070;16.998;2023-07-20T05:45:18;19.50;99.90
2907;DHT22;1463;51.070;16.998;2023-07-20T05:47:46;19.60;99.90
2907;DHT22;1463;51.070;16.998;2023-07-20T05:50:15;19.50;99.90
2907;DHT22;1463;51.070;16.998;2023-07-20T05:52:46;19.40;99.90
2907;DHT22;1463;51.070;16.998;2023-07-20T05:55:16;19.50;99.90
2907;DHT22;1463;51.070;16.998;2023-07-20T05:57:45;19.50;99.90
2907;DHT22;1463;51.070;16.998;2023-07-20T06:00:14;19.50;99.90
2907;DHT22;1463;51.070;16.998;2023-07-20T06:02:45;19.60;99.90
2907;DHT22;1463;51.070;16.998;2023-07-20T06:05:14;19.60;99.90
2907;DHT22;1463;51.070;16.998;2023-07-20T06:07:41;19.80;99.90
2907;DHT22;1463;51.070;16.998;2023-07-20T06:10:10;19.90;99.90
2907;DHT22;1463;51.070;16.998;2023-07-20T06:12:38;19.90;99.90
2907;DHT22;1463;51.070;16.998;2023-07-20T06:15:23;19.90;99.90
2907;DHT22;1463;51.070;16.998;2023-07-20T06:17:51;20.00;99.90
2907;DHT22;1463;51.070;16.998;2023-07-20T06:20:18;20.00;99.90
2907;DHT22;1463;51.070;16.998;2023-07-20T06:22:45;20.00;99.90
2907;DHT22;1463;51.070;16.998;2023-07-20T06:25:15;20.10;99.90
2907;DHT22;1463;51.070;16.998;2023-07-20T06:27:43;20.00;99.90
2907;DHT22;1463;51.070;16.998;2023-07-20T06:30:11;20.00;99.90
2907;DHT22;1463;51.070;16.998;2023-07-20T06:32:39;20.00;99.90
2907;DHT22;1463;51.070;16.998;2023-07-20T06:35:07;20.00;99.90
2907;DHT22;1463;51.070;16.998;2023-07-20T06:37:35;20.00;99.90
2907;DHT22;1463;51.070;16.998;2023-07-20T06:40:02;20.20;99.90
2907;DHT22;1463;51.070;16.998;2023-07-20T06:42:32;20.20;99.90
2907;DHT22;1463;51.070;16.998;2023-07-20T06:44:59;20.20;99.90
2907;DHT22;1463;51.070;16.998;2023-07-20T06:47:27;20.30;99.90
2907;DHT22;1463;51.070;16.998;2023-07-20T06:49:54;20.40;99.90
2907;DHT22;1463;51.070;16.998;2023-07-20T06:52:22;20.30;99.90
2907;DHT22;1463;51.070;16.998;2023-07-20T06:54:49;20.30;99.90
2907;DHT22;1463;51.070;16.998;2023-07-20T06:57:17;20.40;99.90
2907;DHT22;1463;51.070;16.998;2023-07-20T06:59:46;20.40;99.90
2907;DHT22;1463;51.070;16.998;2023-07-20T07:02:13;20.40;99.90
2907;DHT22;1463;51.070;16.998;2023-07-20T07:04:41;20.40;99.90
2907;DHT22;1463;51.070;16.998;2023-07-20T07:07:09;20.60;99.90
2907;DHT22;1463;51.070;16.998;2023-07-20T07:09:37;20.60;99.90
2907;DHT22;1463;51.070;16.998;2023-07-20T07:12:05;20.70;99.90
2907;DHT22;1463;51.070;16.998;2023-07-20T07:14:33;20.80;99.90
2907;DHT22;1463;51.070;16.998;2023-07-20T07:17:02;20.70;99.90
2907;DHT22;1463;51.070;16.998;2023-07-20T07:19:30;20.70;99.90
2907;DHT22;1463;51.070;16.998;2023-07-20T07:21:57;20.80;99.90
2907;DHT22;1463;51.070;16.998;2023-07-20T07:24:25;20.80;99.90
2907;DHT22;1463;51.070;16.998;2023-07-20T07:26:53;20.90;99.90
2907;DHT22;1463;51.070;16.998;2023-07-20T07:29:21;20.90;99.90
2907;DHT22;1463;51.070;16.998;2023-07-20T07:31:48;20.80;99.90
2907;DHT22;1463;51.070;16.998;2023-07-20T07:34:17;21.00;99.90
2907;DHT22;1463;51.070;16.998;2023-07-20T07:36:45;21.20;99.90
2907;DHT22;1463;51.070;16.998;2023-07-20T07:39:13;21.20;99.90
2907;DHT22;1463;51.070;16.998;2023-07-20T07:41:40;21.10;99.90
2907;DHT22;1463;51.070;16.998;2023-07-20T07:44:08;21.10;99.90
2907;DHT22;1463;51.070;16.998;2023-07-20T07:46:35;21.20;99.90
2907;DHT22;1463;51.070;16.998;2023-07-20T07:49:02;21.20;99.90
2907;DHT22;1463;51.070;16.998;2023-07-20T07:51:31;21.10;99.90
2907;DHT22;1463;51.070;16.998;2023-07-20T07:53:59;21.20;99.90
2907;DHT22;1463;51.070;16.998;2023-07-20T07:56:27;21.10;99.90
2907;DHT22;1463;51.070;16.998;2023-07-20T07:58:54;21.10;99.90
2907;DHT22;1463;51.070;16.998;2023-07-20T08:01:22;21.20;99.90
2907;DHT22;1463;51.070;16.998;2023-07-20T08:03:49;21.30;99.90
2907;DHT22;1463;51.070;16.998;2023-07-20T08:06:17;21.40;99.90
2907;DHT22;1463;51.070;16.998;2023-07-20T08:08:46;21.50;99.90
2907;DHT22;1463;51.070;16.998;2023-07-20T08:11:13;21.60;99.90
2907;DHT22;1463;51.070;16.998;2023-07-20T08:13:41;21.60;99.90
2907;DHT22;1463;51.070;16.998;2023-07-20T08:16:08;21.70;99.90
2907;DHT22;1463;51.070;16.998;2023-07-20T08:18:37;21.70;99.90
2907;DHT22;1463;51.070;16.998;2023-07-20T08:21:05;21.70;99.90
2907;DHT22;1463;51.070;16.998;2023-07-20T08:23:32;21.70;99.90
2907;DHT22;1463;51.070;16.998;2023-07-20T08:26:01;21.70;99.90
2907;DHT22;1463;51.070;16.998;2023-07-20T08:28:29;21.70;99.90
2907;DHT22;1463;51.070;16.998;2023-07-20T08:30:57;21.60;99.90
2907;DHT22;1463;51.070;16.998;2023-07-20T08:33:24;21.50;99.90
2907;DHT22;1463;51.070;16.998;2023-07-20T08:35:55;21.50;99.90
2907;DHT22;1463;51.070;16.998;2023-07-20T08:38:23;21.50;99.90
2907;DHT22;1463;51.070;16.998;2023-07-20T08:40:52;21.60;99.90
2907;DHT22;1463;51.070;16.998;2023-07-20T08:43:23;21.70;99.90
2907;DHT22;1463;51.070;16.998;2023-07-20T08:45:52;21.90;99.90
2907;DHT22;1463;51.070;16.998;2023-07-20T08:48:21;22.10;99.90
2907;DHT22;1463;51.070;16.998;2023-07-20T08:50:51;22.10;99.90
2907;DHT22;1463;51.070;16.998;2023-07-20T08:53:20;22.10;99.90
2907;DHT22;1463;51.070;16.998;2023-07-20T08:55:50;22.30;99.90
2907;DHT22;1463;51.070;16.998;2023-07-20T08:58:18;22.40;99.90
2907;DHT22;1463;51.070;16.998;2023-07-20T09:00:47;22.40;99.90
2907;DHT22;1463;51.070;16.998;2023-07-20T09:03:16;22.30;99.90
2907;DHT22;1463;51.070;16.998;2023-07-20T09:05:44;22.30;99.90
2907;DHT22;1463;51.070;16.998;2023-07-20T09:08:12;22.50;99.90
2907;DHT22;1463;51.070;16.998;2023-07-20T09:10:39;22.70;99.90
2907;DHT22;1463;51.070;16.998;2023-07-20T09:13:07;22.70;99.90
2907;DHT22;1463;51.070;16.998;2023-07-20T09:15:34;22.60;99.90
2907;DHT22;1463;51.070;16.998;2023-07-20T09:18:03;22.70;99.90
2907;DHT22;1463;51.070;16.998;2023-07-20T09:20:32;22.70;99.90
2907;DHT22;1463;51.070;16.998;2023-07-20T09:23:04;22.60;99.90
2907;DHT22;1463;51.070;16.998;2023-07-20T09:25:32;22.70;99.90
2907;DHT22;1463;51.070;16.998;2023-07-20T09:28:02;22.50;99.90
2907;DHT22;1463;51.070;16.998;2023-07-20T09:30:30;22.50;99.90
2907;DHT22;1463;51.070;16.998;2023-07-20T09:32:57;22.60;99.90
2907;DHT22;1463;51.070;16.998;2023-07-20T09:35:26;22.70;99.90
2907;DHT22;1463;51.070;16.998;2023-07-20T09:37:57;22.90;99.90
2907;DHT22;1463;51.070;16.998;2023-07-20T09:40:25;22.90;99.90
2907;DHT22;1463;51.070;16.998;2023-07-20T09:42:54;23.00;99.90
2907;DHT22;1463;51.070;16.998;2023-07-20T09:45:29;22.90;99.90
2907;DHT22;1463;51.070;16.998;2023-07-20T09:48:03;23.10;99.90
2907;DHT22;1463;51.070;16.998;2023-07-20T09:50:33;23.20;99.90
2907;DHT22;1463;51.070;16.998;2023-07-20T09:53:01;23.20;99.90
2907;DHT22;1463;51.070;16.998;2023-07-20T09:55:29;23.30;99.90
2907;DHT22;1463;51.070;16.998;2023-07-20T09:57:57;23.40;99.90
2907;DHT22;1463;51.070;16.998;2023-07-20T10:00:25;23.30;99.90
2907;DHT22;1463;51.070;16.998;2023-07-20T10:02:54;23.40;99.90
2907;DHT22;1463;51.070;16.998;2023-07-20T10:05:25;23.40;99.90
2907;DHT22;1463;51.070;16.998;2023-07-20T10:07:57;23.40;99.90
2907;DHT22;1463;51.070;16.998;2023-07-20T10:10:25;23.40;99.90
2907;DHT22;1463;51.070;16.998;2023-07-20T10:12:53;23.40;99.90
2907;DHT22;1463;51.070;16.998;2023-07-20T10:15:24;23.50;99.90
2907;DHT22;1463;51.070;16.998;2023-07-20T10:24:16;23.60;99.90
2907;DHT22;1463;51.070;16.998;2023-07-20T10:26:44;23.60;99.90
2907;DHT22;1463;51.070;16.998;2023-07-20T10:29:12;23.70;99.90
2907;DHT22;1463;51.070;16.998;2023-07-20T10:31:40;23.60;99.90
2907;DHT22;1463;51.070;16.998;2023-07-20T10:34:08;23.50;99.90
2907;DHT22;1463;51.070;16.998;2023-07-20T10:36:43;23.60;99.90
2907;DHT22;1463;51.070;16.998;2023-07-20T10:39:22;23.70;99.90
2907;DHT22;1463;51.070;16.998;2023-07-20T10:41:50;23.80;99.90
2907;DHT22;1463;51.070;16.998;2023-07-20T10:44:26;23.90;99.90
2907;DHT22;1463;51.070;16.998;2023-07-20T10:46:59;24.00;99.90
2907;DHT22;1463;51.070;16.998;2023-07-20T10:49:27;24.00;99.80
2907;DHT22;1463;51.070;16.998;2023-07-20T10:51:58;23.90;99.60
2907;DHT22;1463;51.070;16.998;2023-07-20T10:54:47;23.80;98.60
2907;DHT22;1463;51.070;16.998;2023-07-20T10:57:28;23.70;98.80
2907;DHT22;1463;51.070;16.998;2023-07-20T11:00:11;23.60;98.40
2907;DHT22;1463;51.070;16.998;2023-07-20T11:02:44;23.50;98.60
2907;DHT22;1463;51.070;16.998;2023-07-20T11:05:34;23.40;98.60
2907;DHT22;1463;51.070;16.998;2023-07-20T11:08:04;23.40;99.30
2907;DHT22;1463;51.070;16.998;2023-07-20T11:10:33;23.40;98.70
2907;DHT22;1463;51.070;16.998;2023-07-20T11:13:20;23.60;99.30
2907;DHT22;1463;51.070;16.998;2023-07-20T11:16:01;23.70;98.60
2907;DHT22;1463;51.070;16.998;2023-07-20T11:18:30;23.90;98.00
2907;DHT22;1463;51.070;16.998;2023-07-20T11:21:00;23.90;97.70
2907;DHT22;1463;51.070;16.998;2023-07-20T11:23:29;23.90;97.20
2907;DHT22;1463;51.070;16.998;2023-07-20T11:26:00;23.80;97.80
2907;DHT22;1463;51.070;16.998;2023-07-20T11:28:30;23.70;97.20
2907;DHT22;1463;51.070;16.998;2023-07-20T11:30:58;23.80;97.10
2907;DHT22;1463;51.070;16.998;2023-07-20T11:33:26;23.90;98.10
2907;DHT22;1463;51.070;16.998;2023-07-20T11:35:54;23.90;98.00
2907;DHT22;1463;51.070;16.998;2023-07-20T11:38:22;23.60;99.30
2907;DHT22;1463;51.070;16.998;2023-07-20T11:40:50;23.60;99.90
2907;DHT22;1463;51.070;16.998;2023-07-20T11:43:19;23.40;99.90
2907;DHT22;1463;51.070;16.998;2023-07-20T11:45:49;23.20;99.90
2907;DHT22;1463;51.070;16.998;2023-07-20T11:48:16;23.00;99.90
2907;DHT22;1463;51.070;16.998;2023-07-20T11:50:44;22.40;99.90
2907;DHT22;1463;51.070;16.998;2023-07-20T11:53:12;22.10;99.90
2907;DHT22;1463;51.070;16.998;2023-07-20T11:55:41;21.90;99.90
2907;DHT22;1463;51.070;16.998;2023-07-20T11:58:09;21.60;99.90
2907;DHT22;1463;51.070;16.998;2023-07-20T12:00:38;21.60;99.90
2907;DHT22;1463;51.070;16.998;2023-07-20T12:03:07;21.60;99.90
2907;DHT22;1463;51.070;16.998;2023-07-20T12:05:37;21.40;99.90
2907;DHT22;1463;51.070;16.998;2023-07-20T12:08:05;21.90;99.90
2907;DHT22;1463;51.070;16.998;2023-07-20T12:10:32;22.00;99.90
2907;DHT22;1463;51.070;16.998;2023-07-20T12:13:02;22.00;99.90
2907;DHT22;1463;51.070;16.998;2023-07-20T12:15:30;22.10;99.90
2907;DHT22;1463;51.070;16.998;2023-07-20T12:18:00;22.40;99.90
2907;DHT22;1463;51.070;16.998;2023-07-20T12:20:30;22.70;99.90
2907;DHT22;1463;51.070;16.998;2023-07-20T12:22:59;22.70;99.90
2907;DHT22;1463;51.070;16.998;2023-07-20T12:25:37;22.50;99.90
2907;DHT22;1463;51.070;16.998;2023-07-20T12:28:06;22.60;99.90
2907;DHT22;1463;51.070;16.998;2023-07-20T12:30:34;22.50;99.90
2907;DHT22;1463;51.070;16.998;2023-07-20T12:33:04;22.60;99.90
2907;DHT22;1463;51.070;16.998;2023-07-20T12:35:32;22.70;99.90
2907;DHT22;1463;51.070;16.998;2023-07-20T12:38:00;22.60;99.90
2907;DHT22;1463;51.070;16.998;2023-07-20T12:40:27;22.70;99.90
2907;DHT22;1463;51.070;16.998;2023-07-20T12:42:55;22.70;99.90
2907;DHT22;1463;51.070;16.998;2023-07-20T12:45:22;22.80;99.90
2907;DHT22;1463;51.070;16.998;2023-07-20T12:47:50;22.80;99.90
2907;DHT22;1463;51.070;16.998;2023-07-20T12:50:19;22.90;99.90
2907;DHT22;1463;51.070;16.998;2023-07-20T12:52:49;23.00;99.90
2907;DHT22;1463;51.070;16.998;2023-07-20T12:55:17;23.10;99.90
2907;DHT22;1463;51.070;16.998;2023-07-20T12:57:46;23.10;99.90
2907;DHT22;1463;51.070;16.998;2023-07-20T13:00:15;23.20;99.90
2907;DHT22;1463;51.070;16.998;2023-07-20T13:02:42;23.00;99.90
2907;DHT22;1463;51.070;16.998;2023-07-20T13:05:10;22.90;99.90
2907;DHT22;1463;51.070;16.998;2023-07-20T13:07:39;23.00;99.90
2907;DHT22;1463;51.070;16.998;2023-07-20T13:10:07;23.20;99.90
2907;DHT22;1463;51.070;16.998;2023-07-20T13:12:35;23.10;99.90
2907;DHT22;1463;51.070;16.998;2023-07-20T13:15:05;23.00;99.90
2907;DHT22;1463;51.070;16.998;2023-07-20T13:17:32;23.10;99.90
2907;DHT22;1463;51.070;16.998;2023-07-20T13:20:00;23.10;99.90
2907;DHT22;1463;51.070;16.998;2023-07-20T13:22:30;23.10;99.90
2907;DHT22;1463;51.070;16.998;2023-07-20T13:24:59;23.10;99.90
2907;DHT22;1463;51.070;16.998;2023-07-20T13:27:26;23.10;99.90
2907;DHT22;1463;51.070;16.998;2023-07-20T13:29:54;23.00;99.90
2907;DHT22;1463;51.070;16.998;2023-07-20T13:32:22;23.00;99.90
2907;DHT22;1463;51.070;16.998;2023-07-20T13:34:50;23.00;99.90
2907;DHT22;1463;51.070;16.998;2023-07-20T13:37:17;23.00;99.90
2907;DHT22;1463;51.070;16.998;2023-07-20T13:39:45;23.00;99.90
2907;DHT22;1463;51.070;16.998;2023-07-20T13:42:14;23.00;99.90
2907;DHT22;1463;51.070;16.998;2023-07-20T13:44:41;23.20;99.90
2907;DHT22;1463;51.070;16.998;2023-07-20T13:47:09;23.20;99.90
2907;DHT22;1463;51.070;16.998;2023-07-20T13:49:36;23.30;99.90
2907;DHT22;1463;51.070;16.998;2023-07-20T13:52:05;23.40;99.90
2907;DHT22;1463;51.070;16.998;2023-07-20T13:54:32;23.50;99.90
2907;DHT22;1463;51.070;16.998;2023-07-20T13:57:00;23.50;99.90
2907;DHT22;1463;51.070;16.998;2023-07-20T13:59:29;23.50;99.90
2907;DHT22;1463;51.070;16.998;2023-07-20T14:01:57;23.50;99.90
2907;DHT22;1463;51.070;16.998;2023-07-20T14:04:26;23.60;99.90
2907;DHT22;1463;51.070;16.998;2023-07-20T14:06:54;23.60;99.90
2907;DHT22;1463;51.070;16.998;2023-07-20T14:09:22;23.50;99.90
2907;DHT22;1463;51.070;16.998;2023-07-20T14:11:49;23.50;99.90
2907;DHT22;1463;51.070;16.998;2023-07-20T14:14:17;23.60;99.90
2907;DHT22;1463;51.070;16.998;2023-07-20T14:16:46;23.60;98.10
2907;DHT22;1463;51.070;16.998;2023-07-20T14:19:13;23.60;96.90
2907;DHT22;1463;51.070;16.998;2023-07-20T14:21:41;23.70;97.70
2907;DHT22;1463;51.070;16.998;2023-07-20T14:24:08;23.70;96.70
2907;DHT22;1463;51.070;16.998;2023-07-20T14:26:36;23.80;97.50
2907;DHT22;1463;51.070;16.998;2023-07-20T14:29:03;23.80;97.30
2907;DHT22;1463;51.070;16.998;2023-07-20T14:31:31;23.80;96.80
2907;DHT22;1463;51.070;16.998;2023-07-20T14:34:00;23.90;97.00
2907;DHT22;1463;51.070;16.998;2023-07-20T14:36:27;23.80;95.70
2907;DHT22;1463;51.070;16.998;2023-07-20T14:38:55;23.80;95.40
2907;DHT22;1463;51.070;16.998;2023-07-20T14:41:22;24.00;99.90
2907;DHT22;1463;51.070;16.998;2023-07-20T14:43:49;24.00;97.40
2907;DHT22;1463;51.070;16.998;2023-07-20T14:46:17;24.00;96.90
2907;DHT22;1463;51.070;16.998;2023-07-20T14:48:44;23.90;96.60
2907;DHT22;1463;51.070;16.998;2023-07-20T14:51:14;23.90;97.00
2907;DHT22;1463;51.070;16.998;2023-07-20T14:53:42;24.00;97.70
2907;DHT22;1463;51.070;16.998;2023-07-20T14:56:09;24.00;96.40
2907;DHT22;1463;51.070;16.998;2023-07-20T14:58:37;24.10;99.90
2907;DHT22;1463;51.070;16.998;2023-07-20T15:01:04;24.00;95.70
2907;DHT22;1463;51.070;16.998;2023-07-20T15:03:31;24.10;94.90
2907;DHT22;1463;51.070;16.998;2023-07-20T15:05:59;24.10;94.40
2907;DHT22;1463;51.070;16.998;2023-07-20T15:08:28;24.00;93.70
2907;DHT22;1463;51.070;16.998;2023-07-20T15:10:55;24.00;93.80
2907;DHT22;1463;51.070;16.998;2023-07-20T15:13:23;23.90;93.40
2907;DHT22;1463;51.070;16.998;2023-07-20T15:15:50;23.90;93.50
2907;DHT22;1463;51.070;16.998;2023-07-20T15:18:18;23.90;93.50
2907;DHT22;1463;51.070;16.998;2023-07-20T15:20:45;23.90;94.00
2907;DHT22;1463;51.070;16.998;2023-07-20T15:23:14;23.80;94.10
2907;DHT22;1463;51.070;16.998;2023-07-20T15:25:43;23.80;94.60
2907;DHT22;1463;51.070;16.998;2023-07-20T15:28:10;23.80;96.80
2907;DHT22;1463;51.070;16.998;2023-07-20T15:30:38;23.80;97.70
2907;DHT22;1463;51.070;16.998;2023-07-20T15:33:05;23.80;98.00
2907;DHT22;1463;51.070;16.998;2023-07-20T15:35:32;23.80;97.20
2907;DHT22;1463;51.070;16.998;2023-07-20T15:38:00;23.80;97.20
2907;DHT22;1463;51.070;16.998;2023-07-20T15:40:27;23.80;97.10
2907;DHT22;1463;51.070;16.998;2023-07-20T15:42:56;23.80;96.90
2907;DHT22;1463;51.070;16.998;2023-07-20T15:45:24;23.70;95.70
2907;DHT22;1463;51.070;16.998;2023-07-20T15:47:51;23.80;96.10
2907;DHT22;1463;51.070;16.998;2023-07-20T15:50:19;23.80;95.80
2907;DHT22;1463;51.070;16.998;2023-07-20T15:52:47;23.80;94.90
2907;DHT22;1463;51.070;16.998;2023-07-20T15:55:14;23.80;95.10
2907;DHT22;1463;51.070;16.998;2023-07-20T15:57:42;23.80;94.90
2907;DHT22;1463;51.070;16.998;2023-07-20T16:00:12;23.90;94.80